sensor_id;sensor_type;location;lat;lon;timestamp;temperature;humidity
49042;DHT22;34859;51.608;11.462;2023-01-15T00:15:14;9.00;99.90
49042;DHT22;34859;51.608;11.462;2023-01-15T00:21:59;9.00;99.90
49042;DHT22;34859;51.608;11.462;2023-01-15T00:24:47;9.00;99.90
49042;DHT22;34859;51.608;11.462;2023-01-15T00:27:51;9.00;99.90
49042;DHT22;34859;51.608;11.462;2023-01-15T00:30:59;9.00;99.90
49042;DHT22;34859;51.608;11.462;2023-01-15T00:34:11;9.00;99.90
49042;DHT22;34859;51.608;11.462;2023-01-15T00:40:23;8.90;99.90
49042;DHT22;34859;51.608;11.462;2023-01-15T00:50:35;9.00;99.90
49042;DHT22;34859;51.608;11.462;2023-01-15T01:21:04;9.10;99.90
49042;DHT22;34859;51.608;11.462;2023-01-15T01:23:52;9.10;99.90
49042;DHT22;34859;51.608;11.462;2023-01-15T01:26:45;9.10;99.90
49042;DHT22;34859;51.608;11.462;2023-01-15T01:29:50;9.10;99.90
49042;DHT22;34859;51.608;11.462;2023-01-15T01:32:53;9.10;99.90
49042;DHT22;34859;51.608;11.462;2023-01-15T01:35:40;9.00;99.90
49042;DHT22;34859;51.608;11.462;2023-01-15T01:38:32;9.00;99.90
49042;DHT22;34859;51.608;11.462;2023-01-15T01:41:18;9.00;99.90
49042;DHT22;34859;51.608;11.462;2023-01-15T01:44:06;9.00;99.90
49042;DHT22;34859;51.608;11.462;2023-01-15T01:46:55;9.00;99.90
49042;DHT22;34859;51.608;11.462;2023-01-15T01:49:41;9.00;99.90
49042;DHT22;34859;51.608;11.462;2023-01-15T01:52:38;9.00;99.90
49042;DHT22;34859;51.608;11.462;2023-01-15T01:56:09;9.00;99.90
49042;DHT22;34859;51.608;11.462;2023-01-15T02:02:59;9.00;99.90
49042;DHT22;34859;51.608;11.462;2023-01-15T02:06:43;9.00;99.90
49042;DHT22;34859;51.608;11.462;2023-01-15T02:09:29;9.00;99.90
49042;DHT22;34859;51.608;11.462;2023-01-15T02:12:27;9.00;99.90
49042;DHT22;34859;51.608;11.462;2023-01-15T02:15:18;9.00;99.90
49042;DHT22;34859;51.608;11.462;2023-01-15T02:21:15;9.00;99.90
49042;DHT22;34859;51.608;11.462;2023-01-15T02:27:15;9.00;99.90
49042;DHT22;34859;51.608;11.462;2023-01-15T02:30:49;9.00;99.90
49042;DHT22;34859;51.608;11.462;2023-01-15T02:37:35;9.00;99.90
49042;DHT22;34859;51.608;11.462;2023-01-15T02:40:23;9.10;99.90
49042;DHT22;34859;51.608;11.462;2023-01-15T02:43:10;9.00;99.90
49042;DHT22;34859;51.608;11.462;2023-01-15T02:45:57;9.00;99.90
49042;DHT22;34859;51.608;11.462;2023-01-15T02:48:46;9.00;99.90
49042;DHT22;34859;51.608;11.462;2023-01-15T02:51:41;9.00;99.90
49042;DHT22;34859;51.608;11.462;2023-01-15T02:54:30;9.00;99.90
49042;DHT22;34859;51.608;11.462;2023-01-15T02:57:17;8.90;99.90
49042;DHT22;34859;51.608;11.462;2023-01-15T03:00:08;8.90;99.90
49042;DHT22;34859;51.608;11.462;2023-01-15T03:03:00;8.90;99.90
49042;DHT22;34859;51.608;11.462;2023-01-15T03:05:50;8.90;99.90
49042;DHT22;34859;51.608;11.462;2023-01-15T03:08:37;8.90;99.90
49042;DHT22;34859;51.608;11.462;2023-01-15T03:11:23;8.80;99.90
49042;DHT22;34859;51.608;11.462;2023-01-15T03:16:58;8.80;99.90
49042;DHT22;34859;51.608;11.462;2023-01-15T03:19:49;8.80;99.90
49042;DHT22;34859;51.608;11.462;2023-01-15T03:22:40;8.80;99.90
49042;DHT22;34859;51.608;11.462;2023-01-15T03:25:29;8.80;99.90
49042;DHT22;34859;51.608;11.462;2023-01-15T03:28:20;8.70;99.90
49042;DHT22;34859;51.608;11.462;2023-01-15T03:31:07;8.70;99.90
49042;DHT22;34859;51.608;11.462;2023-01-15T03:33:53;8.70;99.90
49042;DHT22;34859;51.608;11.462;2023-01-15T03:36:38;8.70;99.90
49042;DHT22;34859;51.608;11.462;2023-01-15T03:39:24;8.20;99.90
49042;DHT22;34859;51.608;11.462;2023-01-15T03:45:30;7.30;99.90
49042;DHT22;34859;51.608;11.462;2023-01-15T03:48:30;7.00;99.90
49042;DHT22;34859;51.608;11.462;2023-01-15T03:51:22;6.90;99.90
49042;DHT22;34859;51.608;11.462;2023-01-15T03:54:12;6.80;99.90
49042;DHT22;34859;51.608;11.462;2023-01-15T03:57:02;6.70;99.90
49042;DHT22;34859;51.608;11.462;2023-01-15T03:59:50;6.60;99.90
49042;DHT22;34859;51.608;11.462;2023-01-15T04:02:37;6.40;99.90
49042;DHT22;34859;51.608;11.462;2023-01-15T04:05:24;6.40;99.90
49042;DHT22;34859;51.608;11.462;2023-01-15T04:08:12;6.30;99.90
49042;DHT22;34859;51.608;11.462;2023-01-15T04:10:59;6.30;99.90
49042;DHT22;34859;51.608;11.462;2023-01-15T04:13:45;6.20;99.90
49042;DHT22;34859;51.608;11.462;2023-01-15T04:16:31;6.20;99.90
49042;DHT22;34859;51.608;11.462;2023-01-15T04:19:17;6.10;99.90
49042;DHT22;34859;51.608;11.462;2023-01-15T04:22:03;6.10;99.90
49042;DHT22;34859;51.608;11.462;2023-01-15T04:24:48;6.10;99.90
49042;DHT22;34859;51.608;11.462;2023-01-15T04:27:34;6.10;99.90
49042;DHT22;34859;51.608;11.462;2023-01-15T04:30:21;6.00;99.90
49042;DHT22;34859;51.608;11.462;2023-01-15T04:33:06;6.00;99.90
49042;DHT22;34859;51.608;11.462;2023-01-15T04:35:52;6.10;99.90
49042;DHT22;34859;51.608;11.462;2023-01-15T04:38:38;6.00;99.90
49042;DHT22;34859;51.608;11.462;2023-01-15T04:41:24;6.00;99.90
49042;DHT22;34859;51.608;11.462;2023-01-15T04:44:28;6.10;99.90
49042;DHT22;34859;51.608;11.462;2023-01-15T04:47:14;6.10;99.90
49042;DHT22;34859;51.608;11.462;2023-01-15T04:50:00;6.10;99.90
49042;DHT22;34859;51.608;11.462;2023-01-15T04:52:46;6.10;99.90
49042;DHT22;34859;51.608;11.462;2023-01-15T04:55:32;6.10;99.90
49042;DHT22;34859;51.608;11.462;2023-01-15T04:58:18;6.20;99.90
49042;DHT22;34859;51.608;11.462;2023-01-15T05:01:09;6.20;99.90
49042;DHT22;34859;51.608;11.462;2023-01-15T05:03:55;6.20;99.90
49042;DHT22;34859;51.608;11.462;2023-01-15T05:06:42;6.20;99.90
49042;DHT22;34859;51.608;11.462;2023-01-15T05:09:28;6.20;99.90
49042;DHT22;34859;51.608;11.462;2023-01-15T05:12:14;6.10;99.90
49042;DHT22;34859;51.608;11.462;2023-01-15T05:15:00;6.10;99.90
49042;DHT22;34859;51.608;11.462;2023-01-15T05:17:46;6.00;99.90
49042;DHT22;34859;51.608;11.462;2023-01-15T05:20:35;6.00;99.90
49042;DHT22;34859;51.608;11.462;2023-01-15T05:23:20;6.00;99.90
49042;DHT22;34859;51.608;11.462;2023-01-15T05:26:06;6.00;99.90
49042;DHT22;34859;51.608;11.462;2023-01-15T05:28:56;6.00;99.90
49042;DHT22;34859;51.608;11.462;2023-01-15T05:31:42;6.00;99.90
49042;DHT22;34859;51.608;11.462;2023-01-15T05:34:29;6.00;99.90
49042;DHT22;34859;51.608;11.462;2023-01-15T05:37:15;6.00;99.90
49042;DHT22;34859;51.608;11.462;2023-01-15T05:40:01;6.00;99.90
49042;DHT22;34859;51.608;11.462;2023-01-15T05:42:47;6.00;99.90
49042;DHT22;34859;51.608;11.462;2023-01-15T05:45:33;5.90;99.90
49042;DHT22;34859;51.608;11.462;2023-01-15T05:48:20;5.90;99.90
49042;DHT22;34859;51.608;11.462;2023-01-15T05:51:05;5.90;99.90
49042;DHT22;34859;51.608;11.462;2023-01-15T05:53:51;5.90;99.90
49042;DHT22;34859;51.608;11.462;2023-01-15T05:56:37;5.90;99.90
49042;DHT22;34859;51.608;11.462;2023-01-15T05:59:24;5.80;99.90
49042;DHT22;34859;51.608;11.462;2023-01-15T06:02:10;5.80;99.90
49042;DHT22;34859;51.608;11.462;2023-01-15T06:04:56;5.80;99.90
49042;DHT22;34859;51.608;11.462;2023-01-15T06:07:41;5.70;99.90
49042;DHT22;34859;51.608;11.462;2023-01-15T06:10:27;5.70;99.90
49042;DHT22;34859;51.608;11.462;2023-01-15T06:13:13;5.70;99.90
49042;DHT22;34859;51.608;11.462;2023-01-15T06:15:59;5.60;99.90
49042;DHT22;34859;51.608;11.462;2023-01-15T06:18:45;5.60;99.90
49042;DHT22;34859;51.608;11.462;2023-01-15T06:21:32;5.60;99.90
49042;DHT22;34859;51.608;11.462;2023-01-15T06:24:18;5.60;99.90
49042;DHT22;34859;51.608;11.462;2023-01-15T06:27:05;5.60;99.90
49042;DHT22;34859;51.608;11.462;2023-01-15T06:29:51;5.60;99.90
49042;DHT22;34859;51.608;11.462;2023-01-15T06:32:38;5.50;99.90
49042;DHT22;34859;51.608;11.462;2023-01-15T06:35:24;5.50;99.90
49042;DHT22;34859;51.608;11.462;2023-01-15T06:38:10;5.60;99.90
49042;DHT22;34859;51.608;11.462;2023-01-15T06:40:57;5.60;99.90
49042;DHT22;34859;51.608;11.462;2023-01-15T06:43:42;5.50;99.90
49042;DHT22;34859;51.608;11.462;2023-01-15T06:46:47;5.60;99.90
49042;DHT22;34859;51.608;11.462;2023-01-15T06:49:53;5.50;99.90
49042;DHT22;34859;51.608;11.462;2023-01-15T06:52:39;5.60;99.90
49042;DHT22;34859;51.608;11.462;2023-01-15T06:55:25;5.60;99.90
49042;DHT22;34859;51.608;11.462;2023-01-15T06:58:11;5.60;99.90
49042;DHT22;34859;51.608;11.462;2023-01-15T07:00:57;5.50;99.90
49042;DHT22;34859;51.608;11.462;2023-01-15T07:03:43;5.60;99.90
49042;DHT22;34859;51.608;11.462;2023-01-15T07:06:29;5.60;99.90
49042;DHT22;34859;51.608;11.462;2023-01-15T07:09:14;5.60;99.90
49042;DHT22;34859;51.608;11.462;2023-01-15T07:12:00;5.60;99.90
49042;DHT22;34859;51.608;11.462;2023-01-15T07:14:46;5.60;99.90
49042;DHT22;34859;51.608;11.462;2023-01-15T07:17:32;5.60;99.90
49042;DHT22;34859;51.608;11.462;2023-01-15T07:20:18;5.60;99.90
49042;DHT22;34859;51.608;11.462;2023-01-15T07:23:06;5.50;99.90
49042;DHT22;34859;51.608;11.462;2023-01-15T07:25:52;5.40;99.90
49042;DHT22;34859;51.608;11.462;2023-01-15T07:28:38;5.40;99.90
49042;DHT22;34859;51.608;11.462;2023-01-15T07:31:24;5.40;99.90
49042;DHT22;34859;51.608;11.462;2023-01-15T07:34:10;5.20;99.90
49042;DHT22;34859;51.608;11.462;2023-01-15T07:36:55;5.20;99.90
49042;DHT22;34859;51.608;11.462;2023-01-15T07:39:41;5.20;99.90
49042;DHT22;34859;51.608;11.462;2023-01-15T07:42:27;5.20;99.90
49042;DHT22;34859;51.608;11.462;2023-01-15T07:45:31;5.10;99.90
49042;DHT22;34859;51.608;11.462;2023-01-15T07:48:36;5.20;99.90
49042;DHT22;34859;51.608;11.462;2023-01-15T07:51:40;5.00;99.90
49042;DHT22;34859;51.608;11.462;2023-01-15T07:54:26;5.10;99.90
49042;DHT22;34859;51.608;11.462;2023-01-15T07:57:14;5.10;99.90
49042;DHT22;34859;51.608;11.462;2023-01-15T08:00:00;5.10;99.90
49042;DHT22;34859;51.608;11.462;2023-01-15T08:02:46;5.00;99.90
49042;DHT22;34859;51.608;11.462;2023-01-15T08:05:35;5.00;99.90
49042;DHT22;34859;51.608;11.462;2023-01-15T08:08:20;5.00;99.90
49042;DHT22;34859;51.608;11.462;2023-01-15T08:11:06;4.90;99.90
49042;DHT22;34859;51.608;11.462;2023-01-15T08:14:10;5.00;99.90
49042;DHT22;34859;51.608;11.462;2023-01-15T08:17:15;5.00;99.90
49042;DHT22;34859;51.608;11.462;2023-01-15T08:20:04;4.90;99.90
49042;DHT22;34859;51.608;11.462;2023-01-15T08:22:50;5.00;99.90
49042;DHT22;34859;51.608;11.462;2023-01-15T08:25:36;5.00;99.90
49042;DHT22;34859;51.608;11.462;2023-01-15T08:28:22;5.00;99.90
49042;DHT22;34859;51.608;11.462;2023-01-15T08:31:08;4.90;99.90
49042;DHT22;34859;51.608;11.462;2023-01-15T08:33:54;5.00;99.90
49042;DHT22;34859;51.608;11.462;2023-01-15T08:36:40;5.00;99.90
49042;DHT22;34859;51.608;11.462;2023-01-15T08:39:26;5.00;99.90
49042;DHT22;34859;51.608;11.462;2023-01-15T08:42:12;5.00;99.90
49042;DHT22;34859;51.608;11.462;2023-01-15T08:44:58;5.00;99.90
49042;DHT22;34859;51.608;11.462;2023-01-15T08:47:43;5.10;99.90
49042;DHT22;34859;51.608;11.462;2023-01-15T08:50:29;5.10;99.90
49042;DHT22;34859;51.608;11.462;2023-01-15T08:53:15;5.20;99.90
49042;DHT22;34859;51.608;11.462;2023-01-15T08:56:01;5.20;99.90
49042;DHT22;34859;51.608;11.462;2023-01-15T08:58:47;5.30;99.90
49042;DHT22;34859;51.608;11.462;2023-01-15T09:01:34;5.40;99.90
49042;DHT22;34859;51.608;11.462;2023-01-15T09:04:20;5.40;99.90
49042;DHT22;34859;51.608;11.462;2023-01-15T09:07:06;5.40;99.90
49042;DHT22;34859;51.608;11.462;2023-01-15T09:09:52;5.50;99.90
49042;DHT22;34859;51.608;11.462;2023-01-15T09:12:38;5.50;99.90
49042;DHT22;34859;51.608;11.462;2023-01-15T09:15:23;5.50;99.90
49042;DHT22;34859;51.608;11.462;2023-01-15T09:18:09;5.50;99.90
49042;DHT22;34859;51.608;11.462;2023-01-15T09:20:57;5.60;99.90
49042;DHT22;34859;51.608;11.462;2023-01-15T09:23:43;5.70;99.90
49042;DHT22;34859;51.608;11.462;2023-01-15T09:26:33;5.60;99.90
49042;DHT22;34859;51.608;11.462;2023-01-15T09:29:19;5.70;99.90
49042;DHT22;34859;51.608;11.462;2023-01-15T09:32:04;5.80;99.90
49042;DHT22;34859;51.608;11.462;2023-01-15T09:34:52;5.80;99.90
49042;DHT22;34859;51.608;11.462;2023-01-15T09:37:38;5.90;99.90
49042;DHT22;34859;51.608;11.462;2023-01-15T09:40:38;5.90;99.90
49042;DHT22;34859;51.608;11.462;2023-01-15T09:43:28;6.00;99.90
49042;DHT22;34859;51.608;11.462;2023-01-15T09:46:24;6.00;99.90
49042;DHT22;34859;51.608;11.462;2023-01-15T09:49:34;6.00;99.90
49042;DHT22;34859;51.608;11.462;2023-01-15T09:52:32;6.00;99.90
49042;DHT22;34859;51.608;11.462;2023-01-15T09:55:21;6.00;99.90
49042;DHT22;34859;51.608;11.462;2023-01-15T09:58:09;6.00;99.90
49042;DHT22;34859;51.608;11.462;2023-01-15T10:00:56;6.10;99.90
49042;DHT22;34859;51.608;11.462;2023-01-15T10:03:42;6.10;99.90
49042;DHT22;34859;51.608;11.462;2023-01-15T10:06:34;6.10;99.90
49042;DHT22;34859;51.608;11.462;2023-01-15T10:09:30;6.10;99.90
49042;DHT22;34859;51.608;11.462;2023-01-15T10:12:20;6.00;99.90
49042;DHT22;34859;51.608;11.462;2023-01-15T10:18:05;6.00;99.90
49042;DHT22;34859;51.608;11.462;2023-01-15T10:32:29;5.90;99.90
49042;DHT22;34859;51.608;11.462;2023-01-15T10:35:29;5.90;99.90
49042;DHT22;34859;51.608;11.462;2023-01-15T10:38:29;5.90;99.90
49042;DHT22;34859;51.608;11.462;2023-01-15T10:44:19;5.90;99.90
49042;DHT22;34859;51.608;11.462;2023-01-15T10:47:13;5.90;99.90
49042;DHT22;34859;51.608;11.462;2023-01-15T10:50:01;5.90;99.90
49042;DHT22;34859;51.608;11.462;2023-01-15T10:53:01;5.90;99.90
49042;DHT22;34859;51.608;11.462;2023-01-15T10:55:52;5.90;99.90
49042;DHT22;34859;51.608;11.462;2023-01-15T10:58:47;5.90;99.90
49042;DHT22;34859;51.608;11.462;2023-01-15T11:01:33;5.90;99.90
49042;DHT22;34859;51.608;11.462;2023-01-15T11:04:19;5.90;99.90
49042;DHT22;34859;51.608;11.462;2023-01-15T11:07:08;5.90;99.90
49042;DHT22;34859;51.608;11.462;2023-01-15T11:09:54;5.90;99.90
49042;DHT22;34859;51.608;11.462;2023-01-15T11:12:44;5.90;99.90
49042;DHT22;34859;51.608;11.462;2023-01-15T11:15:53;5.90;99.90
49042;DHT22;34859;51.608;11.462;2023-01-15T11:18:59;5.90;99.90
49042;DHT22;34859;51.608;11.462;2023-01-15T11:22:08;5.90;99.90
49042;DHT22;34859;51.608;11.462;2023-01-15T11:24:58;5.90;99.90
49042;DHT22;34859;51.608;11.462;2023-01-15T11:27:47;5.90;99.90
49042;DHT22;34859;51.608;11.462;2023-01-15T11:30:35;6.00;99.90
49042;DHT22;34859;51.608;11.462;2023-01-15T11:33:25;6.00;99.90
49042;DHT22;34859;51.608;11.462;2023-01-15T11:36:19;6.00;99.90
49042;DHT22;34859;51.608;11.462;2023-01-15T11:39:20;6.00;99.90
49042;DHT22;34859;51.608;11.462;2023-01-15T11:42:11;6.10;99.90
49042;DHT22;34859;51.608;11.462;2023-01-15T11:45:19;6.10;99.90
49042;DHT22;34859;51.608;11.462;2023-01-15T11:48:23;6.00;99.90
49042;DHT22;34859;51.608;11.462;2023-01-15T11:51:28;6.00;99.90
49042;DHT22;34859;51.608;11.462;2023-01-15T11:54:15;6.00;99.90
49042;DHT22;34859;51.608;11.462;2023-01-15T11:57:01;6.00;99.90
49042;DHT22;34859;51.608;11.462;2023-01-15T11:59:48;6.00;99.90
49042;DHT22;34859;51.608;11.462;2023-01-15T12:02:35;6.00;99.90
49042;DHT22;34859;51.608;11.462;2023-01-15T12:05:33;6.00;99.90
49042;DHT22;34859;51.608;11.462;2023-01-15T12:08:26;5.90;99.90
49042;DHT22;34859;51.608;11.462;2023-01-15T12:11:20;6.00;99.90
49042;DHT22;34859;51.608;11.462;2023-01-15T12:17:30;5.90;99.90
49042;DHT22;34859;51.608;11.462;2023-01-15T12:20:37;5.90;99.90
49042;DHT22;34859;51.608;11.462;2023-01-15T12:32:43;6.00;99.90
49042;DHT22;34859;51.608;11.462;2023-01-15T12:35:32;6.00;99.90
49042;DHT22;34859;51.608;11.462;2023-01-15T12:38:20;6.00;99.90
49042;DHT22;34859;51.608;11.462;2023-01-15T12:41:14;6.00;99.90
49042;DHT22;34859;51.608;11.462;2023-01-15T12:44:00;6.00;99.90
49042;DHT22;34859;51.608;11.462;2023-01-15T12:47:06;6.00;99.90
49042;DHT22;34859;51.608;11.462;2023-01-15T12:49:59;6.00;99.90
49042;DHT22;34859;51.608;11.462;2023-01-15T12:52:45;5.90;99.90
49042;DHT22;34859;51.608;11.462;2023-01-15T12:55:33;5.80;99.90
49042;DHT22;34859;51.608;11.462;2023-01-15T13:01:13;5.80;99.90
49042;DHT22;34859;51.608;11.462;2023-01-15T13:04:09;5.80;99.90
49042;DHT22;34859;51.608;11.462;2023-01-15T13:06:59;5.80;99.90
49042;DHT22;34859;51.608;11.462;2023-01-15T13:09:59;5.80;99.90
49042;DHT22;34859;51.608;11.462;2023-01-15T13:12:46;5.80;99.90
49042;DHT22;34859;51.608;11.462;2023-01-15T13:15:32;5.90;99.90
49042;DHT22;34859;51.608;11.462;2023-01-15T13:18:25;5.90;99.90
49042;DHT22;34859;51.608;11.462;2023-01-15T13:21:16;5.90;99.90
49042;DHT22;34859;51.608;11.462;2023-01-15T13:29:49;5.60;99.90
49042;DHT22;34859;51.608;11.462;2023-01-15T13:35:26;5.70;99.90
49042;DHT22;34859;51.608;11.462;2023-01-15T13:38:15;5.80;99.90
49042;DHT22;34859;51.608;11.462;2023-01-15T13:41:04;5.80;99.90
49042;DHT22;34859;51.608;11.462;2023-01-15T13:43:51;5.80;99.90
49042;DHT22;34859;51.608;11.462;2023-01-15T13:46:41;5.80;99.90
49042;DHT22;34859;51.608;11.462;2023-01-15T13:49:32;5.60;99.90
49042;DHT22;34859;51.608;11.462;2023-01-15T13:52:21;5.60;99.90
49042;DHT22;34859;51.608;11.462;2023-01-15T13:55:10;5.60;99.90
49042;DHT22;34859;51.608;11.462;2023-01-15T13:58:19;5.60;99.90
49042;DHT22;34859;51.608;11.462;2023-01-15T14:05:32;5.50;99.90
49042;DHT22;34859;51.608;11.462;2023-01-15T14:08:35;5.50;99.90
49042;DHT22;34859;51.608;11.462;2023-01-15T14:19:17;5.50;99.90
49042;DHT22;34859;51.608;11.462;2023-01-15T14:28:33;5.60;99.90
49042;DHT22;34859;51.608;11.462;2023-01-15T14:42:03;5.40;99.90
49042;DHT22;34859;51.608;11.462;2023-01-15T14:52:20;5.40;99.90
49042;DHT22;34859;51.608;11.462;2023-01-15T14:55:32;5.40;99.90
49042;DHT22;34859;51.608;11.462;2023-01-15T15:02:01;5.40;99.90
49042;DHT22;34859;51.608;11.462;2023-01-15T15:09:05;5.40;99.90
49042;DHT22;34859;51.608;11.462;2023-01-15T15:13:40;5.30;99.90
49042;DHT22;34859;51.608;11.462;2023-01-15T15:19:38;5.50;99.90
49042;DHT22;34859;51.608;11.462;2023-01-15T15:22:46;5.40;99.90
49042;DHT22;34859;51.608;11.462;2023-01-15T15:26:03;5.40;99.90
49042;DHT22;34859;51.608;11.462;2023-01-15T15:29:51;5.40;99.90
49042;DHT22;34859;51.608;11.462;2023-01-15T15:33:17;5.30;99.90
49042;DHT22;34859;51.608;11.462;2023-01-15T15:40:14;5.30;99.90
49042;DHT22;34859;51.608;11.462;2023-01-15T15:43:24;5.30;99.90
49042;DHT22;34859;51.608;11.462;2023-01-15T15:46:52;5.40;99.90
49042;DHT22;34859;51.608;11.462;2023-01-15T15:50:23;5.40;99.90
49042;DHT22;34859;51.608;11.462;2023-01-15T15:56:57;5.30;99.90
49042;DHT22;34859;51.608;11.462;2023-01-15T16:34:17;5.00;99.90
49042;DHT22;34859;51.608;11.462;2023-01-15T16:58:49;5.40;99.90
49042;DHT22;34859;51.608;11.462;2023-01-15T17:02:17;5.40;99.90
49042;DHT22;34859;51.608;11.462;2023-01-15T17:22:43;5.20;99.90
49042;DHT22;34859;51.608;11.462;2023-01-15T17:26:10;5.20;99.90
49042;DHT22;34859;51.608;11.462;2023-01-15T17:29:51;5.20;99.90
49042;DHT22;34859;51.608;11.462;2023-01-15T17:33:17;5.30;99.90
49042;DHT22;34859;51.608;11.462;2023-01-15T17:43:34;5.20;99.90
49042;DHT22;34859;51.608;11.462;2023-01-15T17:57:20;5.20;99.90
49042;DHT22;34859;51.608;11.462;2023-01-15T18:00:50;5.30;99.90
49042;DHT22;34859;51.608;11.462;2023-01-15T18:11:01;5.40;99.90
49042;DHT22;34859;51.608;11.462;2023-01-15T18:17:28;5.40;99.90
49042;DHT22;34859;51.608;11.462;2023-01-15T18:20:37;5.40;99.90
49042;DHT22;34859;51.608;11.462;2023-01-15T18:23:55;5.50;99.90
49042;DHT22;34859;51.608;11.462;2023-01-15T18:30:24;5.40;99.90
49042;DHT22;34859;51.608;11.462;2023-01-15T18:36:38;5.40;99.90
49042;DHT22;34859;51.608;11.462;2023-01-15T18:39:27;5.30;99.90
49042;DHT22;34859;51.608;11.462;2023-01-15T18:42:59;5.30;99.90
49042;DHT22;34859;51.608;11.462;2023-01-15T18:46:12;5.30;99.90
49042;DHT22;34859;51.608;11.462;2023-01-15T18:49:58;5.30;99.90
49042;DHT22;34859;51.608;11.462;2023-01-15T18:53:04;5.20;99.90
49042;DHT22;34859;51.608;11.462;2023-01-15T18:56:14;5.30;99.90
49042;DHT22;34859;51.608;11.462;2023-01-15T18:59:33;5.30;99.90
49042;DHT22;34859;51.608;11.462;2023-01-15T19:02:23;5.30;99.90
49042;DHT22;34859;51.608;11.462;2023-01-15T19:05:48;5.20;99.90
49042;DHT22;34859;51.608;11.462;2023-01-15T19:09:19;5.20;99.90
49042;DHT22;34859;51.608;11.462;2023-01-15T19:12:26;5.20;99.90
49042;DHT22;34859;51.608;11.462;2023-01-15T19:15:32;5.20;99.90
49042;DHT22;34859;51.608;11.462;2023-01-15T19:18:59;5.20;99.90
49042;DHT22;34859;51.608;11.462;2023-01-15T19:22:30;5.30;99.90
49042;DHT22;34859;51.608;11.462;2023-01-15T19:25:45;5.20;99.90
49042;DHT22;34859;51.608;11.462;2023-01-15T19:28:57;5.30;99.90
49042;DHT22;34859;51.608;11.462;2023-01-15T19:31:52;5.30;99.90
49042;DHT22;34859;51.608;11.462;2023-01-15T19:35:12;5.30;99.90
49042;DHT22;34859;51.608;11.462;2023-01-15T19:37:58;5.20;99.90
49042;DHT22;34859;51.608;11.462;2023-01-15T19:40:44;5.10;99.90
49042;DHT22;34859;51.608;11.462;2023-01-15T19:43:30;5.10;99.90
49042;DHT22;34859;51.608;11.462;2023-01-15T19:46:34;5.20;99.90
49042;DHT22;34859;51.608;11.462;2023-01-15T19:49:39;5.20;99.90
49042;DHT22;34859;51.608;11.462;2023-01-15T19:52:47;5.20;99.90
49042;DHT22;34859;51.608;11.462;2023-01-15T19:55:33;5.20;99.90
49042;DHT22;34859;51.608;11.462;2023-01-15T19:58:19;5.20;99.90
49042;DHT22;34859;51.608;11.462;2023-01-15T20:01:05;5.10;99.90
49042;DHT22;34859;51.608;11.462;2023-01-15T20:03:57;5.10;99.90
49042;DHT22;34859;51.608;11.462;2023-01-15T20:06:43;5.10;99.90
49042;DHT22;34859;51.608;11.462;2023-01-15T20:09:29;5.00;99.90
49042;DHT22;34859;51.608;11.462;2023-01-15T20:12:14;5.10;99.90
49042;DHT22;34859;51.608;11.462;2023-01-15T20:15:19;5.00;99.90
49042;DHT22;34859;51.608;11.462;2023-01-15T20:18:05;5.00;99.90
49042;DHT22;34859;51.608;11.462;2023-01-15T20:20:53;5.00;99.90
49042;DHT22;34859;51.608;11.462;2023-01-15T20:23:39;5.00;99.90
49042;DHT22;34859;51.608;11.462;2023-01-15T20:26:25;4.90;99.90
49042;DHT22;34859;51.608;11.462;2023-01-15T20:29:12;5.00;99.90
49042;DHT22;34859;51.608;11.462;2023-01-15T20:31:58;5.00;99.90
49042;DHT22;34859;51.608;11.462;2023-01-15T20:34:43;5.00;99.90
49042;DHT22;34859;51.608;11.462;2023-01-15T20:37:31;4.90;99.90
49042;DHT22;34859;51.608;11.462;2023-01-15T20:40:18;4.90;99.90
49042;DHT22;34859;51.608;11.462;2023-01-15T20:43:05;4.90;99.90
49042;DHT22;34859;51.608;11.462;2023-01-15T20:46:10;5.00;99.90
49042;DHT22;34859;51.608;11.462;2023-01-15T20:48:56;5.00;99.90
49042;DHT22;34859;51.608;11.462;2023-01-15T20:52:01;4.90;99.90
49042;DHT22;34859;51.608;11.462;2023-01-15T20:54:47;5.00;99.90
49042;DHT22;34859;51.608;11.462;2023-01-15T20:57:37;5.00;99.90
49042;DHT22;34859;51.608;11.462;2023-01-15T21:00:23;4.90;99.90
49042;DHT22;34859;51.608;11.462;2023-01-15T21:03:10;4.90;99.90
49042;DHT22;34859;51.608;11.462;2023-01-15T21:05:56;4.90;99.90
49042;DHT22;34859;51.608;11.462;2023-01-15T21:08:42;5.00;99.90
49042;DHT22;34859;51.608;11.462;2023-01-15T21:11:30;4.90;99.90
49042;DHT22;34859;51.608;11.462;2023-01-15T21:14:16;4.90;99.90
49042;DHT22;34859;51.608;11.462;2023-01-15T21:17:02;4.90;99.90
49042;DHT22;34859;51.608;11.462;2023-01-15T21:19:48;4.90;99.90
49042;DHT22;34859;51.608;11.462;2023-01-15T21:22:33;4.90;99.90
49042;DHT22;34859;51.608;11.462;2023-01-15T21:25:19;5.00;99.90
49042;DHT22;34859;51.608;11.462;2023-01-15T21:28:05;4.90;99.90
49042;DHT22;34859;51.608;11.462;2023-01-15T21:30:51;4.90;99.90
49042;DHT22;34859;51.608;11.462;2023-01-15T21:33:37;4.90;99.90
49042;DHT22;34859;51.608;11.462;2023-01-15T21:36:24;4.90;99.90
49042;DHT22;34859;51.608;11.462;2023-01-15T21:39:10;4.80;99.90
49042;DHT22;34859;51.608;11.462;2023-01-15T21:41:57;4.70;99.90
49042;DHT22;34859;51.608;11.462;2023-01-15T21:45:01;4.80;99.90
49042;DHT22;34859;51.608;11.462;2023-01-15T21:47:49;4.80;99.90
49042;DHT22;34859;51.608;11.462;2023-01-15T21:50:35;4.70;99.90
49042;DHT22;34859;51.608;11.462;2023-01-15T21:53:21;4.70;99.90
49042;DHT22;34859;51.608;11.462;2023-01-15T21:56:07;4.70;99.90
49042;DHT22;34859;51.608;11.462;2023-01-15T21:58:53;4.70;99.90
49042;DHT22;34859;51.608;11.462;2023-01-15T22:01:39;4.70;99.90
49042;DHT22;34859;51.608;11.462;2023-01-15T22:04:26;4.70;99.90
49042;DHT22;34859;51.608;11.462;2023-01-15T22:07:12;4.70;99.90
49042;DHT22;34859;51.608;11.462;2023-01-15T22:09:58;4.70;99.90
49042;DHT22;34859;51.608;11.462;2023-01-15T22:12:44;4.80;99.90
49042;DHT22;34859;51.608;11.462;2023-01-15T22:15:30;4.70;99.90
49042;DHT22;34859;51.608;11.462;2023-01-15T22:18:16;4.80;99.90
49042;DHT22;34859;51.608;11.462;2023-01-15T22:21:03;4.60;99.90
49042;DHT22;34859;51.608;11.462;2023-01-15T22:23:49;4.60;99.90
49042;DHT22;34859;51.608;11.462;2023-01-15T22:26:35;4.60;99.90
49042;DHT22;34859;51.608;11.462;2023-01-15T22:29:23;4.70;99.90
49042;DHT22;34859;51.608;11.462;2023-01-15T22:32:10;4.70;99.90
49042;DHT22;34859;51.608;11.462;2023-01-15T22:34:55;4.60;99.90
49042;DHT22;34859;51.608;11.462;2023-01-15T22:37:41;4.60;99.90
49042;DHT22;34859;51.608;11.462;2023-01-15T22:40:27;4.60;99.90
49042;DHT22;34859;51.608;11.462;2023-01-15T22:43:13;4.60;99.90
49042;DHT22;34859;51.608;11.462;2023-01-15T22:46:11;4.60;99.90
49042;DHT22;34859;51.608;11.462;2023-01-15T22:48:57;4.60;99.90
49042;DHT22;34859;51.608;11.462;2023-01-15T22:51:43;4.60;99.90
49042;DHT22;34859;51.608;11.462;2023-01-15T22:54:29;4.60;99.90